Axson, Georgia
Current Conditions -  °F | °C
As of 4:15 PM on Sunday 23 Nov 2014 (Local Time) from KHOE Reporting Station
Broken Clouds Broken Clouds  
Wind Chill: 25°   Ceiling: 3800
Heat Index: 26°   Visibility: 10mi
Dew Point: 23°   Wind: 12mph
Humidity: 89%   Direction: 190°S
Pressure: 29.82"   Gusts: NA
Location:  31.28°N, 82.73°W
Report Text: KHOE 232115Z AUTO 19010KT 10SM SCT017 SCT024 BKN038 25/23 A2982 RMK AO2 LTG DSNT E AND NW
Loading
Personal Weather Stations






























Interactive Weather Map New forecast layout! Learn more

10-Day Weather Forecast

Advertisements
Track Severe Weather on mobile